createdAt,value
2018-12-11T00:00:36.956Z,264.77
2018-12-11T00:04:46.020Z,262.80
2018-12-11T00:07:15.434Z,259.30
2018-12-11T00:09:44.951Z,267.27
2018-12-11T00:12:14.414Z,307.63
2018-12-11T00:14:43.828Z,343.07
2018-12-11T00:17:13.026Z,359.17
2018-12-11T00:19:42.210Z,364.87
2018-12-11T00:22:11.392Z,371.83
2018-12-11T00:24:40.560Z,373.47
2018-12-11T00:27:09.993Z,359.67
2018-12-11T00:29:39.581Z,357.37
2018-12-11T00:32:09.099Z,356.07
2018-12-11T00:34:38.487Z,349.13
2018-12-11T00:37:08.316Z,338.10
2018-12-11T00:39:38.283Z,336.60
2018-12-11T00:42:12.734Z,343.80
2018-12-11T01:05:17.363Z,367.13
2018-12-11T01:10:17.837Z,379.43
2018-12-11T01:17:46.306Z,425.62
2018-12-11T01:20:17.124Z,426.90
2018-12-11T01:25:17.733Z,425.83
2018-12-11T01:30:17.111Z,412.38
2018-12-11T01:35:16.130Z,391.55
2018-12-11T01:40:14.195Z,387.70
2018-12-11T01:42:45.938Z,383.15
2018-12-11T01:50:13.880Z,376.05
2018-12-11T01:57:44.655Z,361.52
2018-12-11T02:10:30.112Z,346.35
2018-12-11T02:15:30.423Z,342.80
2018-12-11T02:20:31.441Z,338.05
2018-12-11T02:25:29.924Z,335.60
2018-12-11T02:27:59.377Z,326.80
2018-12-11T02:30:28.614Z,328.87
2018-12-11T02:32:58.031Z,323.03
2018-12-11T02:38:04.551Z,318.57
2018-12-11T02:40:35.050Z,314.77
2018-12-11T02:45:34.275Z,310.23
2018-12-11T02:50:32.976Z,302.32
2018-12-11T02:53:02.135Z,302.83
2018-12-11T02:58:01.371Z,301.40
2018-12-11T03:00:29.379Z,297.48
2018-12-11T03:05:26.752Z,291.98
2018-12-11T03:12:58.670Z,286.87
2018-12-11T03:17:58.936Z,281.55
2018-12-11T03:22:57.925Z,277.70
2018-12-11T03:27:56.889Z,271.48
2018-12-11T03:30:26.591Z,268.63
2018-12-11T03:35:27.264Z,263.18
2018-12-11T03:45:31.601Z,256.32
2018-12-11T03:47:59.993Z,252.62
2018-12-11T03:50:29.472Z,251.80
2018-12-11T04:00:42.016Z,248.57
2018-12-11T04:05:42.875Z,247.73
2018-12-11T04:13:13.236Z,238.57
2018-12-11T04:18:13.931Z,232.32
2018-12-11T04:23:11.721Z,220.78
2018-12-11T04:30:41.941Z,214.57
2018-12-11T04:35:40.509Z,216.95
2018-12-11T04:40:38.817Z,211.60
2018-12-11T04:45:39.640Z,209.80
2018-12-11T04:48:08.343Z,208.72
2018-12-11T04:53:09.138Z,209.05
2018-12-11T04:55:40.184Z,203.12
2018-12-11T05:03:10.367Z,196.05
2018-12-11T05:08:08.256Z,195.35
2018-12-11T05:13:07.421Z,223.15
2018-12-11T05:20:36.125Z,227.50
2018-12-11T05:23:05.678Z,217.47
2018-12-11T05:33:40.808Z,230.98
2018-12-11T05:44:06.993Z,221.85
2018-12-11T05:51:37.074Z,196.32
2018-12-11T05:54:08.036Z,201.35
2018-12-11T05:56:39.752Z,220.40
2018-12-11T06:04:09.794Z,252.97
2018-12-11T06:09:10.785Z,241.68
2018-12-11T06:16:41.493Z,222.15
2018-12-11T06:21:40.326Z,210.95
2018-12-11T06:26:38.191Z,198.70
2018-12-11T06:34:08.593Z,194.67
2018-12-11T06:41:42.373Z,193.25
2018-12-11T06:44:10.350Z,200.93
2018-12-11T06:54:17.945Z,368.40
2018-12-11T06:56:49.081Z,359.55
2018-12-11T07:01:49.368Z,344.48
2018-12-11T07:11:49.220Z,360.55
2018-12-11T07:19:25.442Z,336.45
2018-12-11T07:21:57.729Z,332.25
2018-12-11T07:26:55.747Z,312.85
2018-12-11T07:32:15.547Z,304.32
2018-12-11T07:34:45.567Z,296.73
2018-12-11T07:37:14.740Z,311.17
2018-12-11T07:39:44.266Z,339.43
2018-12-11T07:42:13.434Z,350.47
2018-12-11T07:44:42.597Z,354.17
2018-12-11T07:47:11.723Z,338.90
2018-12-11T07:49:40.874Z,326.57
2018-12-11T07:52:13.230Z,328.53
2018-12-11T07:54:42.346Z,321.60
2018-12-11T07:57:11.486Z,320.33
2018-12-11T07:59:40.613Z,312.83
2018-12-11T08:02:09.074Z,308.10
2018-12-11T08:12:13.235Z,325.52
2018-12-11T08:14:42.385Z,335.20
2018-12-11T08:17:11.505Z,343.10
2018-12-11T08:19:41.158Z,335.03
2018-12-11T08:22:09.665Z,328.17
2018-12-11T09:34:41.831Z,306.23
2018-12-11T09:37:11.033Z,309.97
2018-12-11T09:39:40.178Z,314.70
2018-12-11T09:42:09.374Z,314.63
2018-12-11T09:44:38.531Z,315.23
2018-12-11T09:47:08.080Z,320.60
2018-12-11T09:49:38.185Z,315.23
2018-12-11T09:52:07.328Z,311.10
2018-12-11T09:54:36.749Z,308.67
2018-12-11T09:57:05.917Z,307.97
2018-12-11T09:59:35.146Z,305.13
2018-12-11T10:02:04.576Z,303.43
2018-12-11T10:04:34.043Z,302.87
2018-12-11T10:07:03.453Z,299.80
2018-12-11T10:09:33.009Z,295.00
2018-12-11T10:12:02.217Z,296.73
2018-12-11T10:14:31.403Z,291.07
2018-12-11T10:17:00.669Z,291.07
2018-12-11T10:19:30.149Z,288.70
2018-12-11T10:21:59.317Z,271.60
2018-12-11T10:24:28.526Z,283.80
2018-12-11T10:26:57.966Z,284.80
2018-12-11T10:29:27.366Z,293.60
2018-12-11T10:31:56.802Z,327.07
2018-12-11T10:34:25.973Z,333.63
2018-12-11T10:36:55.642Z,361.20
2018-12-11T10:39:25.797Z,359.23
2018-12-11T10:44:24.271Z,359.30
2018-12-11T10:46:53.713Z,365.63
2018-12-11T10:49:22.991Z,379.77
2018-12-11T10:51:52.155Z,396.10
2018-12-11T10:54:23.484Z,399.80
2018-12-11T10:56:52.669Z,402.33
2018-12-11T10:59:22.092Z,391.33
2018-12-11T11:01:54.035Z,378.83
2018-12-11T11:04:23.789Z,372.37
2018-12-11T11:06:53.211Z,368.93
2018-12-11T11:09:22.618Z,364.23
2018-12-11T11:11:51.810Z,369.67
2018-12-11T11:14:21.228Z,363.73
2018-12-11T11:16:50.387Z,367.13
2018-12-11T11:19:19.551Z,371.80
2018-12-11T11:21:48.992Z,374.20
2018-12-11T11:24:18.160Z,367.77
2018-12-11T11:26:47.568Z,378.67
2018-12-11T11:29:16.735Z,389.53
2018-12-11T11:31:46.186Z,397.87
2018-12-11T11:34:15.629Z,413.57
2018-12-11T11:36:45.329Z,404.63
2018-12-11T11:39:14.743Z,400.80
2018-12-11T11:41:44.940Z,397.10
2018-12-11T11:44:14.109Z,386.50
2018-12-11T11:46:46.679Z,380.40
2018-12-11T11:49:16.217Z,371.83
2018-12-11T11:51:45.700Z,363.47
2018-12-11T11:54:14.879Z,354.23
2018-12-11T11:56:44.048Z,345.23
2018-12-11T11:59:13.459Z,350.50
2018-12-11T12:01:43.584Z,342.90
2018-12-11T12:04:13.015Z,336.50
2018-12-11T12:06:42.427Z,335.27
2018-12-11T12:09:11.609Z,333.63
2018-12-11T12:11:40.742Z,330.20
2018-12-11T12:14:10.175Z,324.13
2018-12-11T12:16:39.637Z,318.67
2018-12-11T12:19:09.632Z,319.10
2018-12-11T12:21:39.070Z,314.03
2018-12-11T12:24:10.753Z,313.40
2018-12-11T12:26:40.158Z,312.97
2018-12-11T12:29:09.323Z,311.93
2018-12-11T12:31:38.484Z,308.13
2018-12-11T12:34:10.313Z,303.73
2018-12-11T12:36:39.712Z,305.70
2018-12-11T12:39:09.843Z,321.73
2018-12-11T12:41:39.073Z,344.03
2018-12-11T12:44:08.474Z,365.53
2018-12-11T12:46:37.637Z,373.30
2018-12-11T12:49:07.739Z,365.50
2018-12-11T12:51:37.435Z,360.57
2018-12-11T12:54:06.665Z,356.67
2018-12-11T12:56:35.876Z,352.77
2018-12-11T12:59:05.049Z,358.47
2018-12-11T13:01:34.239Z,378.97
2018-12-11T13:04:03.411Z,388.37
2018-12-11T13:06:33.383Z,380.20
2018-12-11T13:09:02.801Z,380.50
2018-12-11T13:11:32.209Z,372.67
2018-12-11T13:14:01.634Z,365.93
2018-12-11T13:16:31.081Z,362.60
2018-12-11T13:19:00.233Z,354.00
2018-12-11T13:21:29.479Z,342.77
2018-12-11T13:23:58.898Z,343.83
2018-12-11T13:26:28.066Z,335.03
2018-12-11T13:28:57.234Z,328.17
2018-12-11T13:31:26.394Z,323.40
2018-12-11T13:33:55.745Z,318.27
2018-12-11T13:36:24.899Z,312.63
2018-12-11T13:38:54.416Z,309.37
2018-12-11T13:41:23.586Z,307.43
2018-12-11T13:43:52.845Z,302.30
2018-12-11T13:46:22.009Z,301.43
2018-12-11T13:48:51.387Z,293.07
2018-12-11T13:51:21.088Z,291.00
2018-12-11T13:53:50.515Z,291.90
2018-12-11T13:56:19.679Z,287.90
2018-12-11T13:58:49.100Z,286.27
2018-12-11T14:01:18.264Z,285.57
2018-12-11T14:03:47.442Z,311.87
2018-12-11T14:06:16.678Z,351.83
2018-12-11T14:08:45.844Z,359.20
2018-12-11T14:11:15.245Z,363.00
2018-12-11T14:13:44.403Z,356.40
2018-12-11T14:16:13.910Z,350.70
2018-12-11T14:18:43.332Z,340.67
2018-12-11T14:21:12.511Z,340.47
2018-12-11T14:23:41.969Z,329.87
2018-12-11T14:26:11.123Z,323.17
2018-12-11T14:28:40.554Z,318.87
2018-12-11T14:31:09.747Z,311.37
2018-12-11T14:33:38.918Z,309.77
2018-12-11T14:42:37.094Z,316.55
2018-12-11T14:45:06.879Z,336.73
2018-12-11T14:47:36.308Z,343.33
2018-12-11T14:50:07.987Z,359.33
2018-12-11T14:52:37.440Z,374.60
2018-12-11T14:55:06.696Z,379.73
2018-12-11T14:57:36.945Z,379.87
2018-12-11T15:00:08.914Z,373.80
2018-12-11T15:02:38.603Z,370.97
2018-12-11T15:05:08.417Z,365.63
2018-12-11T15:07:37.949Z,374.20
2018-12-11T15:10:29.788Z,374.67
2018-12-11T15:12:58.975Z,396.77
2018-12-11T15:15:28.176Z,394.77
2018-12-11T15:17:57.358Z,390.30
2018-12-11T15:20:26.543Z,384.63
2018-12-11T15:22:55.987Z,384.57
2018-12-11T15:25:25.200Z,398.37
2018-12-11T15:27:54.836Z,411.27
2018-12-11T15:33:32.463Z,409.03
2018-12-11T15:36:24.700Z,399.32
2018-12-11T15:38:53.946Z,392.80
2018-12-11T15:41:23.124Z,394.50
2018-12-11T15:43:52.742Z,391.77
2018-12-11T15:46:22.662Z,398.10
2018-12-11T15:48:51.817Z,413.10
2018-12-11T15:54:17.193Z,410.03
2018-12-11T15:56:47.300Z,401.67
2018-12-11T15:59:16.460Z,394.70
2018-12-11T16:01:46.791Z,395.50
2018-12-11T16:04:17.126Z,404.17
2018-12-11T16:06:48.338Z,413.47
2018-12-11T16:09:19.370Z,419.03
2018-12-11T16:11:48.518Z,420.00
2018-12-11T16:14:17.667Z,413.03
2018-12-11T16:16:46.830Z,407.13
2018-12-11T16:19:16.237Z,400.83
2018-12-11T16:21:45.691Z,199.60
2018-12-11T16:24:14.912Z,153.63
2018-12-11T16:26:45.234Z,95.40
